メインページ
METAR-TAF:

METAR-TAF

空港 :

香港, 中華人民共和国

香港国際空港

緯度: 22-19N, 経度: 113-55E, 海抜: 9m

現時点の気象観測

当レポートは16分前の01:00(UTC)に作成
の風 10kt
気温 28°C
湿度 84%
気圧 1008 hPa
視程10km以上
高度1000ftの雲はほとんどない
高度3500ftの雲は散在している

METAR: VHHH 230100Z 10010KT 9999 FEW010 SCT035 28/25 Q1008 NOSIG

時間: 09:16 (01:16 UTC)

予報

当レポートは2時間16分前の23:00(UTC)に作成
予報は23日の 00時(UTC)から 24日の 06時(UTC)まで有効
南東の風 10kt
視程: 8000m
高度1200ftの雲はほとんどない
高度2500ftの雲は散在している
23日の 00時(UTC)から 23日の 03時(UTC)まで一時的に
視程: 4000m
にわか雨
23日の 03時(UTC)から 23日の 09時(UTC)まで一時的に
南西の風 10kt
23日の 09時(UTC)から 23日の 24時(UTC)まで一時的に
変向風 5kt
23日の 18時(UTC)から 23日の 24時(UTC)まで一時的に
視程: 3500m
高度1000ftの雲はほとんどない, 積乱雲.
高度2000ftの雲は散在している
にわか雨
24日の 00時(UTC)から 24日の 06時(UTC)まで一時的に
北/北西の風 10kt
視程: 2500m
高度1000ftの雲はほとんどない, 積乱雲.
高度2000ftの雲は散在している
激しい雷雨, 小雨, にわか雨

TAF: VHHH 222300Z 2300/2406 14010KT 8000 FEW012 SCT025 TX29/2306Z TX28/2406Z TN24/2400Z TEMPO 2300/2303 4000 SHRA TEMPO 2303/2309 22010KT TEMPO 2309/2324 VRB05KT TEMPO 2318/2324 3500 SHRA FEW010CB SCT020 TEMPO 2400/2406 33010KT 2500 -TSRA SHRA FEW010CB SCT020

4,000以上の空港の気象観測と天気予報(METAR報とTAF報)

利用可能な観測所は地図上に黄色い丸と赤い丸で示す。

丸の上にカーソルを重ねると観測所名を参照できる。

次にクリックすると気象観測と天気予報を参照できる。

マップの切り替え:黒色「×」印の緑ボタンをクリックして拡大、「-」印の緑ボタンをクリックして縮小、緑色の三角印をクリックして隣りの地図に切り替え


METAR-TAF: